Stations météo

réclame
Mon MeteoGroup
Wasserkuppe, Allemagne (10544): Température de l'air & dewpoint: 10.12.2017 02:00:00 - 16.12.2017 02:00:00 (CET)Wasserkuppe, Allemagne (10544): Température de l'air 5cm & Température de l'air -5cm: 10.12.2017 02:00:00 - 16.12.2017 02:00:00 (CET)Wasserkuppe, Allemagne (10544): Température de l'air -20cm & Température de l'air -100cm: 10.12.2017 02:00:00 - 16.12.2017 02:00:00 (CET)Wasserkuppe, Allemagne (10544): Vitesse du vent & gusts: 10.12.2017 02:00:00 - 16.12.2017 02:00:00 (CET)Wasserkuppe, Allemagne (10544): Direction du vent: 10.12.2017 02:00:00 - 16.12.2017 02:00:00 (CET)Wasserkuppe, Allemagne (10544): visibility: 10.12.2017 02:00:00 - 16.12.2017 02:00:00 (CET)Wasserkuppe, Allemagne (10544): Ensoleillement: 10.12.2017 02:00:00 - 16.12.2017 02:00:00 (CET)Wasserkuppe, Allemagne (10544): Quantités de précipitations: 10.12.2017 02:00:00 - 16.12.2017 02:00:00 (CET)
Date & Time tt [°C] td [°C] tt 5cm [°C] tt -5cm [°C] tt -20cm [°C] tt -100cm [°C] ff [km/h] ff [knt] fx [km/h] fx [knt] dd vv [km] sd [min] rr [mm]
16.12.2017 02:00:00 -3,3 -3,3 -3,4 0,5 1,5 4,4 12 6 16 9 N 0,7 0 0,0
16.12.2017 01:00:00 -3,0 -3,0 -3,3 0,5 1,5 4,4 8 4 15 8 N 0,1 0 0,0
16.12.2017 00:00:00 -2,7 -2,7 -3,0 0,5 1,5 4,4 6 3 18 10 W 0,1 0 0,0
15.12.2017 23:00:00 -2,6 -2,8 -2,8 0,5 1,5 4,4 12 6 19 10 W 0,1 0 0,0
15.12.2017 22:00:00 -2,5 -2,7 -2,6 0,5 1,5 4,4 10 6 19 10 W 0,1 0 0,1
15.12.2017 21:00:00 -2,4 -2,6 -2,5 0,5 1,5 4,4 12 7 20 11 WNW 0,1 0 0,0
15.12.2017 20:00:00 -2,2 -2,6 -2,3 0,5 1,5 4,4 15 8 27 14 W 0,1 0 0,5
15.12.2017 19:00:00 -1,9 -2,1 -2,1 0,5 1,5 4,4 19 10 32 18 WSW 0,1 0 1,0
15.12.2017 18:00:00 -1,6 -1,6 -1,9 0,5 1,5 4,4 25 14 33 18 SW 0,2 0 0,4
15.12.2017 17:00:00 -1,6 -1,6 -1,7 0,5 1,5 4,4 23 12 35 19 SW 0,1 0 0,4
15.12.2017 16:00:00 -1,5 -1,5 -1,7 0,5 1,5 4,4 26 14 36 20 SSW 0,1 0 0,6
15.12.2017 15:00:00 -1,3 -1,3 -1,8 0,5 1,5 4,4 23 12 35 19 SSW 0,5 0 0,5
15.12.2017 14:00:00 -1,2 -1,2 -1,6 0,5 1,5 4,4 23 13 36 19 S 0,2 0 0,1
15.12.2017 13:00:00 -1,8 -1,8 -1,9 0,5 1,5 4,4 28 15 40 21 SSW 0,1 0 0,1
15.12.2017 12:00:00 -1,6 -1,6 -2,1 0,5 1,5 4,4 29 16 41 22 SW 0,1 0 0,0
15.12.2017 11:00:00 -1,8 -1,8 -1,8 0,5 1,5 4,4 34 18 53 29 SW 0,3 0 0,0
15.12.2017 10:00:00 -2,4 -2,4 -2,3 0,5 1,5 4,4 36 20 47 26 SW 0,2 0 0,3
15.12.2017 09:00:00 -2,5 -2,7 -2,7 0,5 1,5 4,4 31 17 44 24 WSW 0,1 0 -
15.12.2017 08:00:00 -2,5 -3,1 -2,7 0,5 1,5 4,4 21 11 42 23 W 0,1 0 0,8
15.12.2017 07:00:00 -1,9 -2,2 -1,9 0,5 1,5 4,4 24 13 43 23 W 0,1 0 0,4
15.12.2017 06:00:00 -1,9 -2,4 -2,0 0,5 1,5 4,4 24 13 40 22 W 0,1 0 0,0
15.12.2017 05:00:00 -1,8 -2,1 -2,0 0,5 1,5 4,4 26 14 48 26 WSW 0,1 0 0,4
15.12.2017 04:00:00 -1,4 -1,4 -1,5 0,5 1,5 4,4 33 18 42 23 SW 0,2 0 1,0
15.12.2017 03:00:00 -1,5 -1,5 -1,5 0,5 1,5 4,4 29 16 41 22 S 0,3 0 0,8
15.12.2017 02:00:00 -1,6 -1,6 -1,7 0,5 1,5 4,4 33 18 46 25 S 0,2 0 0,0
15.12.2017 01:00:00 -1,7 -1,7 -1,8 0,5 1,5 4,4 30 16 47 25 S 0,2 0 0,0
15.12.2017 00:00:00 -1,7 -1,8 -1,8 0,5 1,5 4,4 35 19 46 25 SSW 0,1 0 0,0
14.12.2017 23:00:00 -1,6 -1,7 -1,7 0,5 1,5 4,4 31 17 41 22 SSW 0,3 0 0,0
14.12.2017 22:00:00 -1,5 -1,6 -1,7 0,5 1,5 4,5 31 17 45 25 SSW 0,6 0 0,0
14.12.2017 21:00:00 -1,5 -1,5 -1,6 0,5 1,5 4,5 34 18 49 27 SW 0,1 0 0,0
14.12.2017 20:00:00 -1,5 -1,5 -1,6 0,5 1,5 4,5 37 20 57 31 SW 0,1 0 -
14.12.2017 19:00:00 -1,5 -1,5 -1,5 0,5 1,5 4,5 42 23 60 33 WSW 0,1 0 0,1
14.12.2017 18:00:00 -1,8 -1,9 -1,9 0,5 1,5 4,5 34 18 63 34 WSW 0,2 0 2,4
14.12.2017 17:00:00 -1,6 -1,9 -1,8 0,5 1,5 4,5 22 12 70 38 WSW 0,2 0 2,2
14.12.2017 16:00:00 -1,6 -1,8 -1,7 0,5 1,5 4,5 49 26 64 35 SW 0,2 0 2,1
14.12.2017 15:00:00 -1,5 -1,9 -1,6 0,5 1,5 4,5 51 27 83 45 SSW 0,3 0 1,4
14.12.2017 14:00:00 -1,6 -2,1 -1,6 0,5 1,5 4,5 58 31 79 42 SSW 10 0 1,0
14.12.2017 13:00:00 -1,5 -1,9 -1,5 0,5 1,5 4,5 45 25 68 37 SW 0,3 0 0,3
14.12.2017 12:00:00 -2,0 -2,4 -2,0 0,5 1,5 4,5 49 26 69 37 SW 40 0 0,0
14.12.2017 11:00:00 -2,6 -2,8 -2,6 0,5 1,5 4,5 46 25 75 41 SW 15 0 0,0
14.12.2017 10:00:00 -2,9 -3,5 -3,0 0,5 1,5 4,5 47 26 89 48 WSW 40 0 -
14.12.2017 09:00:00 -2,7 -3,1 -2,8 0,5 1,5 4,5 60 32 90 49 WSW 0,2 0 1,5
14.12.2017 08:00:00 -2,3 -2,6 -2,4 0,5 1,5 4,5 54 29 84 45 WSW 0,4 0 -
14.12.2017 07:00:00 -1,4 -1,8 -1,5 0,5 1,5 4,5 55 30 101 55 WSW 0,1 0 2,0
14.12.2017 06:00:00 -1,4 -1,4 -1,6 0,5 1,5 4,5 28 15 56 30 SW 0,2 0 1,7
14.12.2017 05:00:00 -0,5 -0,5 -0,6 0,5 1,5 4,5 43 23 67 36 SW 0,1 0 0,0
14.12.2017 04:00:00 -0,4 -0,5 -0,5 0,5 1,5 4,5 45 24 70 38 SW 0,1 0 0,1
14.12.2017 03:00:00 -0,2 -0,4 -0,2 0,5 1,5 4,5 53 29 80 43 SW 0,1 0 0,3
14.12.2017 02:00:00 -0,4 -0,4 -0,4 0,5 1,5 4,5 56 30 83 45 SW 0,1 0 0,7
14.12.2017 01:00:00 -0,8 -0,8 -0,8 0,5 1,5 4,5 64 34 86 46 SSW 0,2 0 1,3
14.12.2017 00:00:00 -1,1 -1,1 -1,2 0,5 1,5 4,5 59 32 76 41 S 0,1 0 1,2
13.12.2017 23:00:00 -1,0 -1,0 -1,1 0,5 1,5 4,5 57 31 90 49 S 0,1 0 0,2
13.12.2017 22:00:00 -1,5 -1,5 -1,5 0,5 1,5 4,5 57 31 83 45 S 0,2 0 0,6
13.12.2017 21:00:00 -1,9 -1,9 -1,9 0,5 1,5 4,5 51 27 80 43 S 0,3 0 0,6
13.12.2017 20:00:00 -2,1 -2,1 -2,2 0,5 1,5 4,5 56 30 79 43 SSW 0,4 0 0,3
13.12.2017 19:00:00 -2,3 -2,3 -2,3 0,5 1,5 4,5 54 29 79 43 SSW 0,7 0 0,5
13.12.2017 18:00:00 -2,5 -2,5 -2,5 0,5 1,5 4,5 61 33 82 45 S 0,4 0 0,6
13.12.2017 17:00:00 -2,6 -2,6 -2,6 0,5 1,5 4,5 61 33 75 41 S 0,5 0 0,7
13.12.2017 16:00:00 -2,6 -2,8 -2,6 0,5 1,5 4,5 58 31 69 38 S 0,5 0 0,6
13.12.2017 15:00:00 -2,6 -3,1 -2,6 0,5 1,5 4,5 58 31 76 41 S 0,6 0 0,1
13.12.2017 14:00:00 -2,7 -3,5 -2,7 0,5 1,5 4,5 56 30 70 38 S 35 0 0,0
13.12.2017 13:00:00 -3,0 -3,9 -2,9 0,5 1,5 4,5 55 30 75 41 S 30 0 0,0
13.12.2017 12:00:00 -3,3 -4,3 -3,2 0,5 1,5 4,5 55 30 69 37 S 15 0 0,0
13.12.2017 11:00:00 -3,6 -4,4 -3,4 0,5 1,5 4,5 50 27 69 37 S 0,4 0 0,0
13.12.2017 10:00:00 -3,3 -4,0 -3,2 0,5 1,5 4,5 50 27 67 36 S 0,2 0 0,0
13.12.2017 09:00:00 -3,1 -3,8 -3,1 0,5 1,5 4,6 48 26 67 36 SSW 0,5 0 0,0
13.12.2017 08:00:00 -3,4 -4,2 -3,4 0,5 1,5 4,6 45 24 63 34 SSW 1,5 0 0,0
13.12.2017 07:00:00 -3,7 -4,5 -3,7 0,5 1,5 4,6 38 21 58 31 SSW 3,0 0 0,0
13.12.2017 06:00:00 -3,7 -4,6 -3,7 0,5 1,5 4,6 39 21 50 27 SSW 0,6 0 0,0
13.12.2017 05:00:00 -3,6 -4,4 -3,6 0,5 1,5 4,6 38 20 49 27 SSW 0,6 0 0,0
13.12.2017 04:00:00 -3,6 -4,4 -3,6 0,5 1,5 4,6 34 19 47 25 SW 0,3 0 0,1
13.12.2017 03:00:00 -3,8 -4,6 -3,8 0,5 1,5 4,6 33 18 49 26 SW 0,2 0 0,0
13.12.2017 02:00:00 -4,0 -4,9 -4,3 0,5 1,5 4,6 26 14 36 19 SSW 18 0 0,0
13.12.2017 01:00:00 -3,8 -4,6 -3,8 0,5 1,5 4,6 27 15 40 22 SW 0,4 0 0,0
13.12.2017 00:00:00 -3,7 -4,5 -3,6 0,5 1,5 4,6 29 16 43 23 SW 0,3 0 0,0
12.12.2017 23:00:00 -3,5 -4,3 -3,5 0,5 1,5 4,6 31 17 41 22 SW 0,5 0 0,0
12.12.2017 22:00:00 -3,4 -4,2 -3,4 0,5 1,5 4,6 32 17 43 23 SW 0,5 0 0,0
12.12.2017 21:00:00 -3,0 -3,7 -3,0 0,5 1,5 4,6 29 16 48 26 WSW 0,4 0 0,0
12.12.2017 20:00:00 -2,8 -3,5 -2,8 0,5 1,5 4,6 31 17 44 24 WSW 0,5 0 0,5
12.12.2017 19:00:00 -2,7 -3,4 -2,7 0,5 1,5 4,6 36 19 51 28 WSW 0,4 0 0,2
12.12.2017 18:00:00 -2,5 -3,1 -2,5 0,5 1,5 4,6 31 17 42 23 WSW 0,3 0 0,0
12.12.2017 17:00:00 -2,5 -3,0 -2,4 0,5 1,5 4,6 25 13 41 22 WSW 0,2 0 0,1
12.12.2017 16:00:00 -2,5 -3,1 -2,5 0,5 1,5 4,6 28 15 50 27 WSW 0,2 0 0,0
12.12.2017 15:00:00 -2,8 -3,7 -2,8 0,5 1,5 4,6 36 19 55 30 WSW 18 0 0,0
12.12.2017 14:00:00 -3,0 -4,0 -3,0 0,5 1,5 4,6 44 24 61 33 SW 35 0 -
12.12.2017 13:00:00 -3,1 -4,0 -3,1 0,5 1,5 4,6 35 19 54 29 WSW 25 0 -
12.12.2017 12:00:00 -3,1 -3,8 -3,1 0,5 1,5 4,6 27 15 46 25 WSW 20 0 0,0
12.12.2017 11:00:00 -3,4 -4,2 -3,4 0,5 1,5 4,6 29 16 54 29 WSW 0,5 0 0,1
12.12.2017 10:00:00 -3,2 -3,9 -3,1 0,5 1,5 4,7 32 18 58 32 W 0,1 0 0,1
12.12.2017 09:00:00 -3,2 -3,8 -3,2 0,5 1,5 4,7 37 20 61 33 WSW 0,1 0 0,1
12.12.2017 08:00:00 -3,3 -3,9 -3,3 0,5 1,6 4,7 39 21 74 40 W 0,1 0 0,2
12.12.2017 07:00:00 -3,4 -4,1 -3,4 0,5 1,6 4,7 44 24 78 42 WSW 0,1 0 1,0
12.12.2017 06:00:00 -2,4 -2,9 -2,4 0,5 1,6 4,7 54 29 85 46 SW 0,1 0 0,6
12.12.2017 05:00:00 -1,1 -1,6 -1,2 0,5 1,6 4,7 45 24 81 44 SW 0,2 0 0,4
12.12.2017 04:00:00 -0,3 -1,4 -0,5 0,5 1,6 4,7 56 30 84 45 SSW 8 0 0,1
12.12.2017 03:00:00 0,1 -0,4 0,0 0,5 1,6 4,7 41 22 84 46 SSW 3,0 0 0,1
12.12.2017 02:00:00 0,5 -0,5 0,3 0,5 1,6 4,7 48 26 83 45 SSW 50 0 0,5
12.12.2017 01:00:00 0,9 0,5 0,7 0,5 1,6 4,7 50 27 73 40 SSW 0,2 0 0,2
12.12.2017 00:00:00 1,2 0,6 0,8 0,5 1,6 4,7 50 27 77 42 S 10 0 0,0
11.12.2017 23:00:00 1,3 0,8 0,9 0,5 1,6 4,7 52 28 73 40 S 15 0 0,0
11.12.2017 22:00:00 1,3 0,7 0,9 0,5 1,7 4,7 45 24 64 35 S 20 0 0,0
11.12.2017 21:00:00 1,4 0,9 1,0 0,5 1,7 4,7 43 23 60 32 S 20 0 0,0
11.12.2017 20:00:00 1,3 0,7 0,9 0,5 1,7 4,7 44 24 58 31 S 25 0 0,0
11.12.2017 19:00:00 1,6 0,6 1,1 0,5 1,7 4,7 42 23 63 34 S 70 0 0,0
11.12.2017 18:00:00 1,9 0,6 1,1 0,5 1,7 4,8 42 23 53 28 S 70 0 0,0
11.12.2017 17:00:00 1,6 1,1 1,3 0,5 1,7 4,8 32 17 60 33 SSW 30 0 0,2
11.12.2017 16:00:00 1,9 1,7 1,3 0,6 1,7 4,8 41 22 65 35 SSW 0,6 0 1,2
11.12.2017 15:00:00 2,0 1,8 1,6 0,6 1,7 4,8 56 31 77 42 S 0,4 0 1,5
11.12.2017 14:00:00 2,0 1,7 1,7 0,6 1,7 4,8 54 29 90 49 SSE 0,8 0 2,0
11.12.2017 13:00:00 2,5 2,3 2,1 0,6 1,7 4,8 64 35 86 47 S 0,6 0 1,0
11.12.2017 12:00:00 1,3 1,0 1,1 0,6 1,7 4,8 61 33 80 43 SSE 0,2 0 0,8
11.12.2017 11:00:00 1,2 0,8 1,0 0,6 1,7 4,8 53 29 69 37 SSE 0,4 0 1,2
11.12.2017 10:00:00 0,6 0,3 0,4 0,6 1,7 4,8 49 27 63 34 SSE 0,4 0 0,7
11.12.2017 09:00:00 0,5 0,2 0,3 0,6 1,7 4,8 31 17 43 23 SSE 0,3 0 0,1
11.12.2017 08:00:00 0,0 -0,4 0,0 0,6 1,7 4,8 17 9 27 14 SSE 0,2 0 0,0
11.12.2017 07:00:00 0,1 -0,2 -0,6 0,6 1,7 4,8 17 9 29 16 S 0,4 0 0,0
11.12.2017 06:00:00 0,4 0,1 0,3 0,6 1,7 4,8 24 13 50 27 SW 0,2 0 0,0
11.12.2017 05:00:00 0,4 0,1 0,4 0,6 1,7 4,8 38 21 61 33 WSW 0,5 0 0,0
11.12.2017 04:00:00 0,3 0,0 0,3 0,6 1,7 4,8 47 25 61 33 SW 0,6 0 0,0
11.12.2017 03:00:00 0,4 0,1 0,3 0,6 1,7 4,8 53 29 79 42 WSW 1,2 0 0,0
11.12.2017 02:00:00 0,5 0,2 0,5 0,6 1,7 4,8 61 33 93 50 SW 0,3 0 0,0
11.12.2017 01:00:00 0,5 0,2 0,5 0,6 1,7 4,8 53 28 100 54 SW 0,2 0 1,5
11.12.2017 00:00:00 1,3 0,8 0,9 0,6 1,7 4,8 83 45 113 61 SSW 8 0 0,4
10.12.2017 23:00:00 0,9 0,4 0,6 0,6 1,7 4,8 71 39 106 57 SSW 10 0 0,0
10.12.2017 22:00:00 0,8 0,5 0,0 0,6 1,7 4,8 73 40 112 61 SSW 15 0 -
10.12.2017 21:00:00 0,3 0,3 0,0 0,6 1,7 4,8 68 37 95 52 SSW 9 0 0,5
10.12.2017 20:00:00 -0,1 -0,4 -0,2 0,6 1,7 4,8 68 37 98 53 SSW 0,3 0 0,0
10.12.2017 19:00:00 -0,9 -1,3 -0,9 0,6 1,7 4,8 56 30 83 45 SSW 0,2 0 0,2
10.12.2017 18:00:00 -2,4 -2,9 -2,4 0,6 1,7 4,8 51 27 71 38 SSW 0,2 0 0,1
10.12.2017 17:00:00 -4,8 -5,6 -4,8 0,6 1,7 4,8 52 28 80 43 S 0,5 0 0,1
10.12.2017 16:00:00 -5,7 -6,8 -5,6 0,6 1,7 4,8 68 37 111 60 S 1,4 0 0,7
10.12.2017 15:00:00 -6,9 -8,1 -6,7 0,6 1,7 4,8 69 37 99 53 SSE 0,2 0 1,1
10.12.2017 14:00:00 -7,0 -8,3 -6,8 0,6 1,7 4,8 70 38 91 49 SSE 0,3 0 0,8
10.12.2017 13:00:00 -7,2 -8,6 -7,1 0,6 1,7 4,8 63 34 74 40 SE 0,6 0 0,3
10.12.2017 12:00:00 -6,9 -8,3 -6,7 0,6 1,7 4,8 44 24 60 32 SSE 3,5 0 0,0
10.12.2017 11:00:00 -6,3 -7,5 -6,0 0,6 1,7 4,8 38 21 49 26 SSE 0,2 0 0,0
10.12.2017 10:00:00 -6,6 -7,9 -6,3 0,6 1,7 4,8 33 18 44 24 S 0,3 0 0,0
10.12.2017 09:00:00 -6,3 -7,5 -6,2 0,6 1,7 4,9 35 19 50 27 S 0,3 0 0,0
10.12.2017 08:00:00 -6,3 -7,4 -6,2 0,6 1,7 4,9 37 20 55 30 S 0,4 0 0,0
10.12.2017 07:00:00 -6,1 -7,2 -6,1 0,6 1,7 4,9 35 19 52 28 S 0,5 0 0,0
10.12.2017 06:00:00 -6,0 -7,0 -5,9 0,6 1,7 4,9 37 20 57 31 SSW 0,5 0 0,0
10.12.2017 05:00:00 -6,1 -7,2 -6,1 0,6 1,7 4,9 41 22 53 28 SSW 0,8 0 0,0
10.12.2017 04:00:00 -6,3 -7,4 -6,3 0,6 1,7 4,9 36 19 56 30 SSW 0,4 0 0,1
10.12.2017 03:00:00 -5,9 -7,1 -6,0 0,6 1,7 4,9 39 21 60 32 SSW 0,4 0 0,1
10.12.2017 02:00:00 -5,6 -6,7 -5,6 0,6 1,7 4,9 39 21 56 30 SW 0,4 0 0,4

tt = Température de l'air
td = dewpoint
tt 5cm = Température de l'air 5cm
tt -5cm = Température de l'air -5cm
tt -20cm = Température de l'air -20cm
tt -100cm = Température de l'air -100cm
ff = Vitesse du vent
fx = gusts
dd = Direction du vent
vv = visibility
sd = Ensoleillement
rr = Quantités de précipitations

stations d'obs. à proximité